createdAt,value
2023-05-19T00:02:06.174Z,4.30
2023-05-19T00:04:35.399Z,4.18
2023-05-19T00:07:03.485Z,4.07
2023-05-19T00:09:31.453Z,3.80
2023-05-19T00:11:59.059Z,3.37
2023-05-19T00:14:26.418Z,2.67
2023-05-19T00:16:56.075Z,3.00
2023-05-19T00:19:24.579Z,2.65
2023-05-19T00:21:52.038Z,2.50
2023-05-19T00:24:19.172Z,2.20
2023-05-19T00:26:46.580Z,2.60
2023-05-19T00:29:18.391Z,3.20
2023-05-19T00:31:46.653Z,2.30
2023-05-19T00:34:14.133Z,2.97
2023-05-19T00:36:41.528Z,2.30
2023-05-19T00:39:08.668Z,2.40
2023-05-19T00:41:36.106Z,2.20
2023-05-19T00:44:03.590Z,1.98
2023-05-19T00:46:30.874Z,1.90
2023-05-19T00:48:58.365Z,1.70
2023-05-19T00:51:26.817Z,2.33
2023-05-19T00:53:54.035Z,2.03
2023-05-19T00:56:21.861Z,1.95
2023-05-19T00:58:51.063Z,2.53
2023-05-19T01:01:19.323Z,2.33
2023-05-19T01:03:48.184Z,2.10
2023-05-19T01:06:15.583Z,2.03
2023-05-19T01:08:42.767Z,2.53
2023-05-19T01:11:10.753Z,1.85
2023-05-19T01:13:40.336Z,2.37
2023-05-19T01:16:17.404Z,1.95
2023-05-19T01:18:47.873Z,2.20
2023-05-19T01:21:17.720Z,2.15
2023-05-19T01:24:12.000Z,1.98
2023-05-19T01:26:56.895Z,1.87
2023-05-19T01:29:39.875Z,2.25
2023-05-19T01:32:08.121Z,2.40
2023-05-19T01:34:42.073Z,2.30
2023-05-19T01:37:09.728Z,2.30
2023-05-19T01:39:37.455Z,2.45
2023-05-19T01:42:04.989Z,2.42
2023-05-19T01:44:33.059Z,2.53
2023-05-19T01:47:01.231Z,2.47
2023-05-19T01:49:28.535Z,2.67
2023-05-19T01:51:56.288Z,2.62
2023-05-19T01:54:23.782Z,2.60
2023-05-19T01:57:17.432Z,2.80
2023-05-19T02:00:15.881Z,2.60
2023-05-19T02:02:49.575Z,2.95
2023-05-19T02:05:41.853Z,3.15
2023-05-19T02:08:12.548Z,2.78
2023-05-19T02:10:43.490Z,2.80
2023-05-19T02:13:14.113Z,2.85
2023-05-19T02:15:42.431Z,2.60
2023-05-19T02:18:11.560Z,2.80
2023-05-19T02:20:40.033Z,2.55
2023-05-19T02:23:07.528Z,2.50
2023-05-19T02:25:35.048Z,2.70
2023-05-19T02:28:02.315Z,3.15
2023-05-19T02:30:32.069Z,2.58
2023-05-19T02:33:00.587Z,3.10
2023-05-19T02:35:28.068Z,2.40
2023-05-19T02:37:55.548Z,2.67
2023-05-19T02:40:23.316Z,3.20
2023-05-19T02:42:50.578Z,2.17
2023-05-19T02:45:18.074Z,2.95
2023-05-19T02:47:45.385Z,2.90
2023-05-19T02:50:12.577Z,3.05
2023-05-19T02:52:40.400Z,2.60
2023-05-19T02:55:08.203Z,2.25
2023-05-19T02:57:35.601Z,3.62
2023-05-19T03:00:03.587Z,2.90
2023-05-19T03:02:33.386Z,3.47
2023-05-19T03:05:02.858Z,2.78
2023-05-19T03:07:30.982Z,2.87
2023-05-19T03:09:58.178Z,3.20
2023-05-19T03:12:25.413Z,2.55
2023-05-19T03:14:52.937Z,2.90
2023-05-19T03:17:20.216Z,2.97
2023-05-19T03:19:47.535Z,2.80
2023-05-19T03:22:15.413Z,3.62
2023-05-19T03:24:42.587Z,3.05
2023-05-19T03:27:11.990Z,2.72
2023-05-19T03:29:39.543Z,2.97
2023-05-19T03:32:06.926Z,2.90
2023-05-19T03:34:35.468Z,3.00
2023-05-19T03:37:03.190Z,3.12
2023-05-19T03:39:31.046Z,3.28
2023-05-19T03:41:58.268Z,3.53
2023-05-19T03:44:26.230Z,3.25
2023-05-19T03:46:53.564Z,2.95
2023-05-19T03:49:21.206Z,3.00
2023-05-19T03:51:59.635Z,3.12
2023-05-19T03:54:27.503Z,3.00
2023-05-19T03:56:54.904Z,3.08
2023-05-19T03:59:23.633Z,3.20
2023-05-19T04:01:51.584Z,2.95
2023-05-19T04:04:19.189Z,3.25
2023-05-19T04:06:46.737Z,3.42
2023-05-19T04:09:15.826Z,2.75
2023-05-19T04:11:43.380Z,3.17
2023-05-19T04:14:10.707Z,3.08
2023-05-19T04:16:37.944Z,3.53
2023-05-19T04:19:05.788Z,3.22
2023-05-19T04:21:33.232Z,3.37
2023-05-19T04:24:00.441Z,3.17
2023-05-19T04:26:30.997Z,3.20
2023-05-19T04:28:58.425Z,2.72
2023-05-19T04:31:26.083Z,2.92
2023-05-19T04:33:53.692Z,3.05
2023-05-19T04:36:21.850Z,3.17
2023-05-19T04:38:49.434Z,2.67
2023-05-19T04:41:17.575Z,2.60
2023-05-19T04:43:45.013Z,3.05
2023-05-19T04:46:13.961Z,2.60
2023-05-19T04:48:42.711Z,2.65
2023-05-19T04:51:10.137Z,2.75
2023-05-19T04:53:37.363Z,3.30
2023-05-19T04:56:07.874Z,2.90
2023-05-19T04:58:35.593Z,2.62
2023-05-19T05:01:03.855Z,3.67
2023-05-19T05:03:33.214Z,3.47
2023-05-19T05:06:01.092Z,3.95
2023-05-19T05:08:30.184Z,2.65
2023-05-19T05:10:58.133Z,2.87
2023-05-19T05:13:26.711Z,2.83
2023-05-19T05:15:54.470Z,2.75
2023-05-19T05:18:22.399Z,3.20
2023-05-19T05:20:50.333Z,2.72
2023-05-19T05:23:17.875Z,3.55
2023-05-19T05:25:47.114Z,3.53
2023-05-19T05:28:14.627Z,3.50
2023-05-19T05:30:42.059Z,3.67
2023-05-19T05:33:09.899Z,3.45
2023-05-19T05:35:37.546Z,3.58
2023-05-19T05:38:04.906Z,3.03
2023-05-19T05:40:32.578Z,3.60
2023-05-19T05:42:59.888Z,3.47
2023-05-19T05:45:27.669Z,3.85
2023-05-19T05:47:55.706Z,3.10
2023-05-19T05:50:23.831Z,4.00
2023-05-19T05:52:53.193Z,5.65
2023-05-19T05:55:21.096Z,4.45
2023-05-19T05:57:50.603Z,5.25
2023-05-19T06:00:18.637Z,4.72
2023-05-19T06:02:50.625Z,4.55
2023-05-19T06:05:18.099Z,3.90
2023-05-19T06:07:46.787Z,3.78
2023-05-19T06:10:16.864Z,4.45
2023-05-19T06:12:44.112Z,4.45
2023-05-19T06:15:11.631Z,4.10
2023-05-19T06:17:43.562Z,4.43
2023-05-19T06:20:11.697Z,5.40
2023-05-19T06:22:39.235Z,4.62
2023-05-19T06:25:08.945Z,4.40
2023-05-19T06:27:36.295Z,4.80
2023-05-19T06:30:04.249Z,4.87
2023-05-19T06:32:32.257Z,4.37
2023-05-19T06:34:59.893Z,5.43
2023-05-19T06:37:27.395Z,4.62
2023-05-19T06:39:55.789Z,5.05
2023-05-19T06:42:24.025Z,4.90
2023-05-19T06:44:53.068Z,5.12
2023-05-19T06:47:20.350Z,5.82
2023-05-19T06:49:50.868Z,4.35
2023-05-19T06:52:19.158Z,4.95
2023-05-19T06:54:50.875Z,4.78
2023-05-19T06:57:18.056Z,5.43
2023-05-19T06:59:46.757Z,5.22
2023-05-19T07:02:14.426Z,4.37
2023-05-19T07:04:42.556Z,4.30
2023-05-19T07:07:10.457Z,4.37
2023-05-19T07:09:38.167Z,4.60
2023-05-19T07:12:05.983Z,4.40
2023-05-19T07:14:33.657Z,5.30
2023-05-19T07:17:01.053Z,4.62
2023-05-19T07:19:28.300Z,4.18
2023-05-19T07:21:57.029Z,4.47
2023-05-19T07:24:25.091Z,4.47
2023-05-19T07:26:52.299Z,4.45
2023-05-19T07:29:19.789Z,4.30
2023-05-19T07:31:46.987Z,3.95
2023-05-19T07:34:14.332Z,3.90
2023-05-19T07:36:42.142Z,4.57
2023-05-19T07:39:09.503Z,4.70
2023-05-19T07:41:36.781Z,4.55
2023-05-19T07:44:07.763Z,4.70
2023-05-19T07:46:35.552Z,5.68
2023-05-19T07:49:03.383Z,4.43
2023-05-19T07:51:31.779Z,4.68
2023-05-19T07:53:59.014Z,3.87
2023-05-19T07:56:26.193Z,4.30
2023-05-19T07:58:53.689Z,4.28
2023-05-19T08:01:20.945Z,4.75
2023-05-19T08:03:48.440Z,4.82
2023-05-19T08:06:15.699Z,4.00
2023-05-19T08:08:42.808Z,3.85
2023-05-19T08:11:10.189Z,4.47
2023-05-19T08:13:37.292Z,4.40
2023-05-19T08:16:05.113Z,4.30
2023-05-19T08:18:32.602Z,6.47
2023-05-19T08:20:59.762Z,3.67
2023-05-19T08:23:26.953Z,3.70
2023-05-19T08:25:54.409Z,4.00
2023-05-19T08:28:21.566Z,3.50
2023-05-19T08:30:50.750Z,4.20
2023-05-19T08:33:20.742Z,4.18
2023-05-19T08:35:47.937Z,4.30
2023-05-19T08:38:15.089Z,4.07
2023-05-19T08:40:42.821Z,3.80
2023-05-19T08:43:11.240Z,4.28
2023-05-19T08:45:41.689Z,3.78
2023-05-19T08:48:09.234Z,3.47
2023-05-19T08:50:39.884Z,3.85
2023-05-19T08:53:33.767Z,3.35
2023-05-19T08:56:10.400Z,3.72
2023-05-19T08:58:40.205Z,3.90
2023-05-19T09:01:08.006Z,3.67
2023-05-19T09:03:39.313Z,3.67
2023-05-19T09:06:12.575Z,3.70
2023-05-19T09:08:41.078Z,3.53
2023-05-19T09:11:09.610Z,4.05
2023-05-19T09:13:36.785Z,4.28
2023-05-19T09:16:04.439Z,3.90
2023-05-19T09:18:31.850Z,3.40
2023-05-19T09:21:03.223Z,3.78
2023-05-19T09:23:34.034Z,3.78
2023-05-19T09:26:07.689Z,3.60
2023-05-19T09:28:36.841Z,4.07
2023-05-19T09:31:08.230Z,3.65
2023-05-19T09:33:37.084Z,3.67
2023-05-19T09:36:11.575Z,3.50
2023-05-19T09:38:39.644Z,3.62
2023-05-19T09:41:08.313Z,3.03
2023-05-19T09:43:35.637Z,4.68
2023-05-19T09:46:07.970Z,3.50
2023-05-19T09:48:36.447Z,3.65
2023-05-19T09:51:08.214Z,4.37
2023-05-19T09:53:35.521Z,4.03
2023-05-19T09:56:04.121Z,3.83
2023-05-19T09:58:35.419Z,3.60
2023-05-19T10:01:04.303Z,3.90
2023-05-19T10:03:35.243Z,5.47
2023-05-19T10:06:04.502Z,5.55
2023-05-19T10:08:33.533Z,3.37
2023-05-19T10:11:00.989Z,3.30
2023-05-19T10:13:29.473Z,3.58
2023-05-19T10:15:59.446Z,4.00
2023-05-19T10:18:30.139Z,3.60
2023-05-19T10:20:58.185Z,3.70
2023-05-19T10:23:25.781Z,4.00
2023-05-19T10:25:56.822Z,4.20
2023-05-19T10:28:28.391Z,3.97
2023-05-19T10:30:59.039Z,4.87
2023-05-19T10:33:42.487Z,3.42
2023-05-19T10:36:15.914Z,5.47
2023-05-19T10:38:55.928Z,3.70
2023-05-19T10:41:37.181Z,3.72
2023-05-19T10:44:04.999Z,4.35
2023-05-19T10:46:32.266Z,3.53
2023-05-19T10:48:59.543Z,3.67
2023-05-19T10:51:33.727Z,3.70
2023-05-19T10:56:42.334Z,4.43
2023-05-19T10:59:37.170Z,4.35
2023-05-19T11:02:05.727Z,4.65
2023-05-19T11:05:07.738Z,5.80
2023-05-19T11:07:35.561Z,4.85
2023-05-19T11:10:07.590Z,4.70
2023-05-19T11:12:45.850Z,5.22
2023-05-19T11:15:16.536Z,4.30
2023-05-19T11:17:48.837Z,5.55
2023-05-19T11:20:26.706Z,5.18
2023-05-19T11:23:07.197Z,5.97
2023-05-19T11:25:51.462Z,5.03
2023-05-19T11:28:20.945Z,5.93
2023-05-19T11:30:50.807Z,5.00
2023-05-19T11:33:19.962Z,5.57
2023-05-19T11:35:49.527Z,5.97
2023-05-19T11:38:20.383Z,6.03
2023-05-19T11:40:49.668Z,6.87
2023-05-19T11:43:16.858Z,6.80
2023-05-19T11:45:44.420Z,6.35
2023-05-19T11:48:12.973Z,6.25
2023-05-19T11:50:44.150Z,6.62
2023-05-19T11:53:16.725Z,6.72
2023-05-19T11:55:48.116Z,5.45
2023-05-19T11:58:16.640Z,7.05
2023-05-19T12:00:46.252Z,6.07
2023-05-19T12:03:13.988Z,5.55
2023-05-19T12:05:45.330Z,5.97
2023-05-19T12:08:12.959Z,5.75
2023-05-19T12:10:40.978Z,6.47
2023-05-19T12:13:11.731Z,7.05
2023-05-19T12:15:39.258Z,6.93
2023-05-19T12:18:07.376Z,5.72
2023-05-19T12:20:37.793Z,6.15
2023-05-19T12:23:05.753Z,6.45
2023-05-19T12:25:33.529Z,5.70
2023-05-19T12:28:04.639Z,6.03
2023-05-19T12:30:33.203Z,5.72
2023-05-19T12:33:01.806Z,7.00
2023-05-19T12:35:30.706Z,4.37
2023-05-19T12:38:03.369Z,4.57
2023-05-19T12:40:31.045Z,4.70
2023-05-19T12:42:59.338Z,5.00
2023-05-19T12:45:28.572Z,5.05
2023-05-19T12:47:56.681Z,4.87
2023-05-19T12:50:30.917Z,5.15
2023-05-19T12:52:59.971Z,4.82
2023-05-19T12:55:27.298Z,5.03
2023-05-19T12:57:57.072Z,4.72
2023-05-19T13:00:27.756Z,4.05
2023-05-19T13:02:55.379Z,4.90
2023-05-19T13:05:22.995Z,3.95
2023-05-19T13:07:57.933Z,12.05
2023-05-19T13:10:29.004Z,4.28
2023-05-19T13:13:00.453Z,4.40
2023-05-19T13:15:31.850Z,4.35
2023-05-19T13:18:00.558Z,3.83
2023-05-19T13:20:28.647Z,4.72
2023-05-19T13:22:56.992Z,4.53
2023-05-19T13:25:24.600Z,4.20
2023-05-19T13:27:51.897Z,5.12
2023-05-19T13:30:19.466Z,3.72
2023-05-19T13:32:47.140Z,4.55
2023-05-19T13:35:14.993Z,4.43
2023-05-19T13:37:42.749Z,3.87
2023-05-19T13:40:10.981Z,4.55
2023-05-19T13:42:38.384Z,3.67
2023-05-19T13:45:06.154Z,3.65
2023-05-19T13:47:33.729Z,3.62
2023-05-19T13:50:04.607Z,4.00
2023-05-19T13:52:31.989Z,3.67
2023-05-19T13:54:59.521Z,3.35
2023-05-19T13:57:26.814Z,3.12
2023-05-19T14:00:02.815Z,3.97
2023-05-19T14:02:39.822Z,3.67
2023-05-19T14:05:08.094Z,3.78
2023-05-19T14:07:35.939Z,4.10
2023-05-19T14:10:05.485Z,3.62
2023-05-19T14:12:41.647Z,3.28
2023-05-19T14:15:20.135Z,7.78
2023-05-19T14:17:49.034Z,3.87
2023-05-19T14:20:16.795Z,4.03
2023-05-19T14:22:44.003Z,4.32
2023-05-19T14:25:11.521Z,4.22
2023-05-19T14:27:40.040Z,2.95
2023-05-19T14:30:08.405Z,3.62
2023-05-19T14:32:36.116Z,4.07
2023-05-19T14:35:03.678Z,4.45
2023-05-19T14:37:31.953Z,5.53
2023-05-19T14:39:59.569Z,4.07
2023-05-19T14:42:26.822Z,11.00
2023-05-19T14:44:54.066Z,4.90
2023-05-19T14:47:21.558Z,4.18
2023-05-19T14:49:48.915Z,3.30
2023-05-19T14:52:16.252Z,3.78
2023-05-19T14:54:43.734Z,3.10
2023-05-19T14:57:10.962Z,3.50
2023-05-19T14:59:38.735Z,2.97
2023-05-19T15:02:06.387Z,3.72
2023-05-19T15:04:33.647Z,3.90
2023-05-19T15:09:31.803Z,3.35
2023-05-19T15:12:01.159Z,3.62
2023-05-19T15:14:30.495Z,3.70
2023-05-19T15:16:58.971Z,3.65
2023-05-19T15:19:26.487Z,3.33
2023-05-19T15:21:53.929Z,3.90
2023-05-19T15:24:21.520Z,3.65
2023-05-19T15:26:48.741Z,3.20
2023-05-19T15:29:15.941Z,3.37
2023-05-19T15:31:43.524Z,4.00
2023-05-19T15:34:10.785Z,2.97
2023-05-19T15:36:38.022Z,3.58
2023-05-19T15:39:06.492Z,3.17
2023-05-19T15:41:33.682Z,3.15
2023-05-19T15:44:02.309Z,9.98
2023-05-19T15:46:30.419Z,3.17
2023-05-19T15:48:57.647Z,3.20
2023-05-19T15:51:24.991Z,4.07
2023-05-19T15:53:52.527Z,3.08
2023-05-19T15:56:19.690Z,7.15
2023-05-19T15:58:46.937Z,3.47
2023-05-19T16:01:15.256Z,4.50
2023-05-19T16:03:43.603Z,3.50
2023-05-19T16:06:11.031Z,4.37
2023-05-19T16:08:38.295Z,3.25
2023-05-19T16:11:06.009Z,3.00
2023-05-19T16:13:33.657Z,4.35
2023-05-19T16:16:01.118Z,3.60
2023-05-19T16:18:31.740Z,3.12
2023-05-19T16:20:58.918Z,5.28
2023-05-19T16:23:27.418Z,3.37
2023-05-19T16:25:54.920Z,3.20
2023-05-19T16:28:24.477Z,3.97
2023-05-19T16:30:52.078Z,3.30
2023-05-19T16:33:19.640Z,3.25
2023-05-19T16:35:46.826Z,3.37
2023-05-19T16:38:13.950Z,2.97
2023-05-19T16:40:41.403Z,3.35
2023-05-19T16:43:08.544Z,2.78
2023-05-19T16:45:35.758Z,3.10
2023-05-19T16:48:03.618Z,5.65
2023-05-19T16:50:31.042Z,18.70
2023-05-19T16:52:58.232Z,18.27
2023-05-19T16:55:26.758Z,12.02
2023-05-19T16:57:53.995Z,10.80
2023-05-19T17:00:21.213Z,6.10
2023-05-19T17:02:48.695Z,5.35
2023-05-19T17:05:15.952Z,4.60
2023-05-19T17:07:43.093Z,3.62
2023-05-19T17:10:10.941Z,3.87
2023-05-19T17:12:38.110Z,4.68
2023-05-19T17:15:05.911Z,4.97
2023-05-19T17:17:33.357Z,8.80
2023-05-19T17:20:00.656Z,5.55
2023-05-19T17:22:28.807Z,6.35
2023-05-19T17:24:57.787Z,7.57
2023-05-19T17:27:25.053Z,6.45
2023-05-19T17:29:52.179Z,5.50
2023-05-19T17:32:25.488Z,4.78
2023-05-19T17:34:52.946Z,12.75
2023-05-19T17:37:23.475Z,10.38
2023-05-19T17:39:50.934Z,8.32
2023-05-19T17:42:18.097Z,11.30
2023-05-19T17:44:45.532Z,13.27
2023-05-19T17:47:12.646Z,10.05
2023-05-19T17:49:40.308Z,7.00
2023-05-19T17:52:08.348Z,7.00
2023-05-19T17:54:35.861Z,10.43
2023-05-19T17:57:03.628Z,11.35
2023-05-19T17:59:31.385Z,16.12
2023-05-19T18:01:58.829Z,14.48
2023-05-19T18:04:26.598Z,9.02
2023-05-19T18:06:54.576Z,7.80
2023-05-19T18:09:23.368Z,9.50
2023-05-19T18:11:50.832Z,6.45
2023-05-19T18:14:18.027Z,6.45
2023-05-19T18:16:45.323Z,5.53
2023-05-19T18:19:12.890Z,7.55
2023-05-19T18:21:40.088Z,7.78
2023-05-19T18:24:07.302Z,7.93
2023-05-19T18:26:37.636Z,9.50
2023-05-19T18:29:05.051Z,15.55
2023-05-19T18:31:32.265Z,7.20
2023-05-19T18:33:59.771Z,5.20
2023-05-19T18:36:27.027Z,5.62
2023-05-19T18:38:55.130Z,5.43
2023-05-19T18:41:22.827Z,6.53
2023-05-19T18:43:50.105Z,5.90
2023-05-19T18:46:18.000Z,5.75
2023-05-19T18:48:45.616Z,6.62
2023-05-19T18:51:15.768Z,7.30
2023-05-19T18:53:42.885Z,8.20
2023-05-19T18:56:15.199Z,7.18
2023-05-19T18:58:42.409Z,9.10
2023-05-19T19:01:09.966Z,8.27
2023-05-19T19:03:37.212Z,9.60
2023-05-19T19:06:04.383Z,11.27
2023-05-19T19:08:31.862Z,6.55
2023-05-19T19:11:01.044Z,8.45
2023-05-19T19:13:28.399Z,6.03
2023-05-19T19:15:55.830Z,5.75
2023-05-19T19:18:23.001Z,16.87
2023-05-19T19:20:50.159Z,13.75
2023-05-19T19:23:17.747Z,9.65
2023-05-19T19:25:44.856Z,10.93
2023-05-19T19:28:11.989Z,12.98
2023-05-19T19:30:39.576Z,10.65
2023-05-19T19:33:07.065Z,9.25
2023-05-19T19:35:34.966Z,8.65
2023-05-19T19:38:02.467Z,10.18
2023-05-19T19:40:29.770Z,7.53
2023-05-19T19:42:57.021Z,7.55
2023-05-19T19:45:25.924Z,7.68
2023-05-19T19:47:53.547Z,8.68
2023-05-19T19:50:20.793Z,12.85
2023-05-19T19:52:48.254Z,9.32
2023-05-19T19:55:15.828Z,17.40
2023-05-19T19:57:45.601Z,8.50
2023-05-19T20:00:13.555Z,12.40
2023-05-19T20:02:55.856Z,11.57
2023-05-19T20:05:29.112Z,12.25
2023-05-19T20:07:56.520Z,18.37
2023-05-19T20:10:23.642Z,10.77
2023-05-19T20:12:51.184Z,8.00
2023-05-19T20:15:18.772Z,7.45
2023-05-19T20:17:46.286Z,6.90
2023-05-19T20:20:13.928Z,9.88
2023-05-19T20:22:41.406Z,8.27
2023-05-19T20:25:08.950Z,8.10
2023-05-19T20:27:36.145Z,10.82
2023-05-19T20:30:04.009Z,7.47
2023-05-19T20:32:31.658Z,8.88
2023-05-19T20:34:58.924Z,8.38
2023-05-19T20:37:26.517Z,8.23
2023-05-19T20:39:53.648Z,8.68
2023-05-19T20:42:20.769Z,9.52
2023-05-19T20:44:48.201Z,8.93
2023-05-19T20:47:15.375Z,8.85
2023-05-19T20:49:42.574Z,8.00
2023-05-19T20:52:10.119Z,10.05
2023-05-19T20:54:37.413Z,9.65
2023-05-19T20:57:08.956Z,9.65
2023-05-19T20:59:36.437Z,10.40
2023-05-19T21:02:04.339Z,10.38
2023-05-19T21:04:33.035Z,9.85
2023-05-19T21:07:01.073Z,9.18
2023-05-19T21:09:28.268Z,10.35
2023-05-19T21:11:55.441Z,10.45
2023-05-19T21:14:22.959Z,9.48
2023-05-19T21:16:51.338Z,10.27
2023-05-19T21:19:20.580Z,9.35
2023-05-19T21:21:48.204Z,8.88
2023-05-19T21:24:15.588Z,9.70
2023-05-19T21:26:43.193Z,9.73
2023-05-19T21:29:10.817Z,8.77
2023-05-19T21:31:38.240Z,9.70
2023-05-19T21:34:07.513Z,8.85
2023-05-19T21:36:35.250Z,9.57
2023-05-19T21:39:03.663Z,8.57
2023-05-19T21:41:33.502Z,8.35
2023-05-19T21:44:00.931Z,8.90
2023-05-19T21:46:29.124Z,9.30
2023-05-19T21:48:56.483Z,9.05
2023-05-19T21:51:23.922Z,6.40
2023-05-19T21:53:51.054Z,7.45
2023-05-19T21:56:18.159Z,7.62
2023-05-19T21:58:45.606Z,8.40
2023-05-19T22:01:13.220Z,7.87
2023-05-19T22:03:40.797Z,7.22
2023-05-19T22:06:08.307Z,6.30
2023-05-19T22:08:35.473Z,6.53
2023-05-19T22:11:02.952Z,6.25
2023-05-19T22:13:30.308Z,7.28
2023-05-19T22:15:58.108Z,5.82
2023-05-19T22:18:25.521Z,6.80
2023-05-19T22:20:52.644Z,6.60
2023-05-19T22:23:19.744Z,6.15
2023-05-19T22:25:47.160Z,5.85
2023-05-19T22:28:14.392Z,6.80
2023-05-19T22:30:42.296Z,6.60
2023-05-19T22:33:11.709Z,5.68
2023-05-19T22:35:38.947Z,6.62
2023-05-19T22:38:07.477Z,6.12
2023-05-19T22:40:37.003Z,6.57
2023-05-19T22:43:04.240Z,5.78
2023-05-19T22:45:31.647Z,6.40
2023-05-19T22:47:59.484Z,6.00
2023-05-19T22:50:26.783Z,6.40
2023-05-19T22:52:53.976Z,6.40
2023-05-19T22:55:21.463Z,5.87
2023-05-19T22:57:48.678Z,5.80
2023-05-19T23:00:18.641Z,5.90
2023-05-19T23:02:46.846Z,6.05
2023-05-19T23:05:14.053Z,6.30
2023-05-19T23:07:41.258Z,6.35
2023-05-19T23:10:09.062Z,6.32
2023-05-19T23:12:36.236Z,5.60
2023-05-19T23:15:03.884Z,5.37
2023-05-19T23:17:33.304Z,6.03
2023-05-19T23:20:00.549Z,5.43
2023-05-19T23:22:27.805Z,5.47
2023-05-19T23:24:55.267Z,5.87
2023-05-19T23:27:22.340Z,5.10
2023-05-19T23:29:51.524Z,6.65
2023-05-19T23:32:18.902Z,5.45
2023-05-19T23:34:47.101Z,5.80
2023-05-19T23:37:14.428Z,6.32
2023-05-19T23:39:41.971Z,5.12
2023-05-19T23:42:09.181Z,5.25
2023-05-19T23:44:36.399Z,5.45
2023-05-19T23:47:03.997Z,5.05
2023-05-19T23:49:31.179Z,5.37
2023-05-19T23:51:58.330Z,5.32
2023-05-19T23:54:26.637Z,5.43
2023-05-19T23:56:55.773Z,5.75
2023-05-19T23:59:23.128Z,5.47
